Time;durP1;ratioP1;P1;durP2;ratioP2;P2;SDS_P1;SDS_P2;PMS_P1;PMS_P2;Temp;Humidity;BMP_temperature;BMP_pressure;BME280_temperature;BME280_humidity;BME280_pressure;Samples;Min_cycle;Max_cycle;Signal;HPM_P1;HPM_P2
2023/04/06 07:45:11;;;;;;;31.77;27.33;;;8.70;99.90;;;;;;4957271;28;20818;-69
2023/04/06 07:47:38;;;;;;;39.03;28.63;;;9.00;99.90;;;;;;5013342;28;20493;-69
2023/04/06 07:50:07;;;;;;;31.23;26.57;;;9.10;99.90;;;;;;5099520;28;20796;-69
2023/04/06 07:52:34;;;;;;;32.20;28.73;;;9.10;99.90;;;;;;5085708;28;20454;-69
2023/04/06 07:55:01;;;;;;;39.83;27.23;;;8.90;99.90;;;;;;5092894;28;21021;-69
2023/04/06 07:57:29;;;;;;;29.47;26.50;;;9.10;99.90;;;;;;5090720;28;20462;-68
2023/04/06 07:59:56;;;;;;;38.17;26.23;;;9.30;99.90;;;;;;5090214;28;21323;-71
2023/04/06 08:02:24;;;;;;;34.20;28.80;;;9.30;99.90;;;;;;5087557;28;20454;-71
2023/04/06 08:04:52;;;;;;;43.50;26.50;;;9.50;99.90;;;;;;5094220;28;20465;-71
2023/04/06 08:07:20;;;;;;;45.80;29.07;;;9.80;99.90;;;;;;5092695;28;20481;-71
2023/04/06 08:09:47;;;;;;;32.13;28.53;;;9.90;99.90;;;;;;5091336;28;20831;-69
2023/04/06 08:12:14;;;;;;;29.53;26.70;;;10.50;99.90;;;;;;5089825;28;20530;-70
2023/04/06 08:14:41;;;;;;;33.63;28.27;;;10.40;99.90;;;;;;5089757;28;20467;-69
2023/04/06 08:17:08;;;;;;;31.70;27.70;;;10.40;99.90;;;;;;5092113;28;20453;-69
2023/04/06 08:19:37;;;;;;;34.10;27.97;;;10.50;99.90;;;;;;5093498;28;20561;-69
2023/04/06 08:22:04;;;;;;;38.70;28.07;;;10.70;99.90;;;;;;5093563;28;20457;-69
2023/04/06 08:24:32;;;;;;;37.10;28.00;;;10.80;99.90;;;;;;5085726;28;20890;-70
2023/04/06 08:26:59;;;;;;;31.07;27.87;;;10.90;99.90;;;;;;5093066;28;20881;-69
2023/04/06 08:29:26;;;;;;;45.03;27.80;;;10.90;99.90;;;;;;5089887;28;20462;-70
2023/04/06 08:31:54;;;;;;;41.87;27.90;;;11.20;99.90;;;;;;5095200;28;20967;-69
2023/04/06 08:34:22;;;;;;;41.97;27.60;;;11.30;99.90;;;;;;5089737;28;20507;-69
2023/04/06 08:36:49;;;;;;;42.40;28.43;;;11.40;99.90;;;;;;5096543;28;20816;-70
2023/04/06 08:39:17;;;;;;;36.13;27.77;;;11.40;99.90;;;;;;5090002;28;20454;-69
2023/04/06 08:41:45;;;;;;;30.93;28.00;;;11.80;99.90;;;;;;5086603;28;20450;-70
2023/04/06 08:44:12;;;;;;;32.83;27.70;;;12.20;99.90;;;;;;5091668;28;20462;-69
2023/04/06 08:46:39;;;;;;;29.17;26.30;;;12.50;99.90;;;;;;5095234;28;21026;-69
2023/04/06 08:49:06;;;;;;;38.97;27.20;;;12.50;99.90;;;;;;5087461;28;20466;-70
2023/04/06 08:58:51;;;;;;;31.27;27.93;;;12.80;99.90;;;;;;5082168;28;20183;-70
2023/04/06 09:01:21;;;;;;;31.17;28.17;;;12.80;99.90;;;;;;5087054;28;20192;-71
2023/04/06 09:03:51;;;;;;;42.43;28.13;;;13.00;99.90;;;;;;5086402;28;20492;-70
2023/04/06 09:06:18;;;;;;;32.63;28.50;;;13.00;99.90;;;;;;5087514;28;20994;-70
2023/04/06 09:08:45;;;;;;;32.40;29.20;;;12.90;99.90;;;;;;5085458;28;20527;-70
2023/04/06 09:11:12;;;;;;;31.13;28.17;;;12.80;99.90;;;;;;5091646;28;20457;-71
2023/04/06 09:13:46;;;;;;;29.33;26.63;;;12.70;99.90;;;;;;5092310;28;20450;-70
2023/04/06 09:16:15;;;;;;;33.00;29.50;;;13.00;99.90;;;;;;5098509;28;20812;-71
2023/04/06 09:18:42;;;;;;;30.67;27.17;;;13.20;98.90;;;;;;5085915;28;20458;-69
2023/04/06 09:21:09;;;;;;;32.13;28.63;;;13.10;98.30;;;;;;5091609;28;20462;-69
2023/04/06 09:23:36;;;;;;;34.53;29.43;;;13.30;98.00;;;;;;5094738;28;20987;-69
2023/04/06 09:26:08;;;;;;;31.50;27.30;;;13.60;97.60;;;;;;5096255;28;20974;-70
2023/04/06 09:28:48;;;;;;;34.87;28.43;;;13.90;97.80;;;;;;5089433;28;20490;-69
2023/04/06 09:31:18;;;;;;;31.23;27.93;;;14.00;97.00;;;;;;5090900;28;20460;-70
2023/04/06 09:33:46;;;;;;;32.87;29.37;;;14.60;96.00;;;;;;5082952;28;20606;-70
2023/04/06 09:36:15;;;;;;;31.27;28.33;;;14.80;95.00;;;;;;5089017;28;20511;-72
2023/04/06 09:38:54;;;;;;;35.67;28.13;;;14.60;95.10;;;;;;5080559;28;20481;-73
2023/04/06 09:41:25;;;;;;;33.83;28.40;;;14.50;95.70;;;;;;5088384;28;20454;-70
2023/04/06 09:43:52;;;;;;;30.40;27.50;;;15.00;94.80;;;;;;5094216;28;21017;-70
2023/04/06 09:46:23;;;;;;;41.03;27.80;;;14.90;94.00;;;;;;5086723;28;20478;-70
2023/04/06 09:48:52;;;;;;;39.60;28.60;;;15.10;94.00;;;;;;5093763;28;20478;-70
2023/04/06 09:51:21;;;;;;;34.30;27.87;;;15.60;93.40;;;;;;5085957;28;20453;-71
2023/04/06 09:53:53;;;;;;;32.93;29.53;;;15.90;92.90;;;;;;5087873;28;21008;-70
2023/04/06 09:56:25;;;;;;;29.47;26.67;;;15.90;91.80;;;;;;5088383;28;20465;-72
2023/04/06 09:58:57;;;;;;;28.63;26.13;;;16.40;90.80;;;;;;5087119;28;21113;-70
2023/04/06 10:01:29;;;;;;;27.90;25.60;;;16.60;89.70;;;;;;5101789;28;20457;-70
2023/04/06 10:04:02;;;;;;;29.10;26.40;;;16.50;89.50;;;;;;5089426;28;20458;-71
2023/04/06 10:06:35;;;;;;;36.20;27.40;;;16.60;88.50;;;;;;5094910;28;20457;-70
2023/04/06 10:09:05;;;;;;;27.50;25.07;;;16.60;90.00;;;;;;5092085;28;20873;-70
2023/04/06 10:11:32;;;;;;;30.20;27.33;;;16.40;88.20;;;;;;5087161;28;20557;-70
2023/04/06 10:13:59;;;;;;;30.00;27.60;;;16.30;87.40;;;;;;5091239;28;20461;-70
2023/04/06 10:16:29;;;;;;;30.13;27.43;;;16.30;87.10;;;;;;5090400;28;20462;-70
2023/04/06 10:19:01;;;;;;;29.23;26.53;;;16.20;88.20;;;;;;5088745;28;20990;-70
2023/04/06 10:21:30;;;;;;;30.57;27.57;;;16.30;88.20;;;;;;5093572;28;20497;-70
2023/04/06 10:24:00;;;;;;;29.13;25.90;;;16.20;88.50;;;;;;5091168;28;20469;-70
2023/04/06 10:26:28;;;;;;;29.53;26.73;;;15.60;86.90;;;;;;5093412;28;21037;-70
2023/04/06 10:29:02;;;;;;;29.57;26.67;;;14.60;90.20;;;;;;5092899;28;20648;-70
2023/04/06 10:31:31;;;;;;;27.07;24.43;;;15.10;90.40;;;;;;5099338;28;20456;-71
2023/04/06 10:33:59;;;;;;;28.43;25.87;;;15.40;90.70;;;;;;5089341;28;20466;-70
2023/04/06 10:36:29;;;;;;;32.33;27.40;;;15.30;92.00;;;;;;5091192;28;20446;-70
2023/04/06 10:38:58;;;;;;;31.00;28.10;;;15.20;91.90;;;;;;5091207;28;20481;-70
2023/04/06 10:41:32;;;;;;;29.50;26.80;;;14.90;90.60;;;;;;5100683;28;20453;-71
2023/04/06 10:44:02;;;;;;;29.60;26.70;;;15.10;90.10;;;;;;5092780;28;20458;-70
2023/04/06 10:46:32;;;;;;;30.20;26.70;;;15.20;89.90;;;;;;5093034;28;20880;-71
2023/04/06 10:49:00;;;;;;;28.60;25.77;;;15.10;90.00;;;;;;5088378;28;20492;-70
2023/04/06 10:51:29;;;;;;;28.50;25.50;;;15.00;90.30;;;;;;5091503;28;20906;-71
2023/04/06 10:53:57;;;;;;;28.63;26.30;;;15.20;88.10;;;;;;5090643;28;20458;-71
2023/04/06 10:56:27;;;;;;;29.03;26.10;;;14.80;86.90;;;;;;5085706;28;20457;-71
2023/04/06 10:58:56;;;;;;;27.97;25.37;;;14.50;89.60;;;;;;5080824;28;20473;-71
2023/04/06 11:01:24;;;;;;;29.00;26.10;;;14.60;88.90;;;;;;5087610;28;20458;-71
2023/04/06 11:03:54;;;;;;;27.80;25.40;;;14.60;80.30;;;;;;5085511;28;20491;-71
2023/04/06 11:06:22;;;;;;;28.20;25.50;;;14.70;82.10;;;;;;5090419;28;20465;-71
2023/04/06 11:08:50;;;;;;;28.87;26.17;;;15.10;83.50;;;;;;5091355;28;20486;-71
2023/04/06 11:11:18;;;;;;;29.50;26.70;;;15.30;80.70;;;;;;5088314;28;20458;-71
2023/04/06 11:13:47;;;;;;;29.57;26.77;;;15.30;81.20;;;;;;5085302;28;20453;-71
2023/04/06 11:16:15;;;;;;;25.90;23.60;;;15.50;79.70;;;;;;5083045;28;20462;-71
2023/04/06 11:18:55;;;;;;;29.73;24.27;;;15.60;80.30;;;;;;5083457;28;20462;-71
2023/04/06 11:21:33;;;;;;;24.63;22.73;;;16.00;81.30;;;;;;5083840;28;20546;-71
2023/04/06 11:24:11;;;;;;;26.87;24.17;;;16.00;80.10;;;;;;5090739;28;20519;-71
2023/04/06 11:26:43;;;;;;;24.80;22.60;;;15.60;82.40;;;;;;5082918;28;20472;-71
2023/04/06 11:29:11;;;;;;;25.77;23.40;;;15.70;82.60;;;;;;5084907;28;20496;-71
2023/04/06 11:31:42;;;;;;;23.77;21.63;;;15.20;84.20;;;;;;5085789;28;20454;-71
2023/04/06 11:34:17;;;;;;;26.80;24.70;;;14.50;85.20;;;;;;5082906;28;20491;-71
2023/04/06 11:36:46;;;;;;;25.37;23.17;;;14.40;90.00;;;;;;5088248;28;20472;-71
2023/04/06 11:39:14;;;;;;;25.00;22.77;;;14.40;89.60;;;;;;5090719;28;20499;-71
2023/04/06 11:41:41;;;;;;;24.87;22.87;;;14.20;91.10;;;;;;5091817;28;20902;-72
2023/04/06 11:44:08;;;;;;;24.80;22.73;;;14.30;91.00;;;;;;5084417;28;20466;-71
2023/04/06 11:46:35;;;;;;;25.63;23.73;;;14.30;90.40;;;;;;5084756;28;20500;-71
2023/04/06 11:49:03;;;;;;;25.10;22.97;;;14.30;90.20;;;;;;5084728;28;20486;-71
2023/04/06 11:51:36;;;;;;;25.20;23.20;;;14.20;90.40;;;;;;5084558;28;20456;-71
2023/04/06 11:54:02;;;;;;;25.50;23.57;;;14.30;91.30;;;;;;5084531;28;20458;-71
2023/04/06 11:56:30;;;;;;;25.37;23.47;;;14.00;91.70;;;;;;5090487;28;20463;-71
2023/04/06 11:58:59;;;;;;;25.70;22.37;;;13.80;92.00;;;;;;5088637;28;20456;-71
2023/04/06 12:01:26;;;;;;;22.70;21.20;;;14.00;92.70;;;;;;5087891;28;20589;-72
2023/04/06 12:03:54;;;;;;;22.33;20.40;;;13.90;91.70;;;;;;5088376;28;20933;-71
2023/04/06 12:06:21;;;;;;;21.23;19.83;;;13.90;90.30;;;;;;5085905;28;20808;-72
2023/04/06 12:08:49;;;;;;;21.60;20.10;;;14.10;91.40;;;;;;5083008;28;20486;-71
2023/04/06 12:11:16;;;;;;;23.60;21.90;;;14.10;89.60;;;;;;5086446;28;20970;-71
2023/04/06 12:13:43;;;;;;;22.10;20.60;;;14.30;88.00;;;;;;5082022;28;20453;-71
2023/04/06 12:16:11;;;;;;;22.00;20.40;;;14.30;89.10;;;;;;5084954;28;20932;-71
2023/04/06 12:18:38;;;;;;;22.33;20.80;;;14.30;89.70;;;;;;5086949;28;20490;-71
2023/04/06 12:21:06;;;;;;;21.70;20.07;;;14.50;90.40;;;;;;5082217;28;20481;-72
2023/04/06 12:23:33;;;;;;;22.17;20.33;;;14.60;90.10;;;;;;5084539;28;20541;-72
2023/04/06 12:26:02;;;;;;;21.47;19.53;;;14.30;89.50;;;;;;5087033;28;20454;-71
2023/04/06 12:28:30;;;;;;;22.77;20.80;;;14.30;90.70;;;;;;5083912;28;21367;-71
2023/04/06 12:30:56;;;;;;;23.33;21.50;;;14.40;91.60;;;;;;5088468;28;20467;-71
2023/04/06 12:33:24;;;;;;;24.27;22.27;;;14.00;95.30;;;;;;5082619;28;20469;-71
2023/04/06 12:35:51;;;;;;;24.43;22.43;;;13.50;96.90;;;;;;5086644;28;20991;-71
2023/04/06 12:38:18;;;;;;;25.20;23.00;;;13.10;99.90;;;;;;5084476;28;20481;-71
2023/04/06 12:40:45;;;;;;;25.50;23.30;;;12.80;99.90;;;;;;5088778;28;20493;-71
2023/04/06 12:43:14;;;;;;;25.13;23.13;;;12.70;99.90;;;;;;5089303;28;20477;-71
2023/04/06 12:45:41;;;;;;;25.47;23.20;;;12.40;99.90;;;;;;5088606;28;20517;-70
2023/04/06 12:48:09;;;;;;;25.80;23.20;;;12.10;99.90;;;;;;5089115;28;20454;-70
2023/04/06 12:50:36;;;;;;;24.90;22.77;;;12.40;99.90;;;;;;5091639;28;21042;-69
2023/04/06 12:53:03;;;;;;;27.17;24.77;;;12.50;99.90;;;;;;5086189;28;20461;-67
2023/04/06 12:55:34;;;;;;;27.97;25.47;;;12.40;99.90;;;;;;5090239;28;20662;-68
2023/04/06 12:58:00;;;;;;;27.17;24.97;;;12.20;99.90;;;;;;5092584;28;20544;-69
2023/04/06 13:00:30;;;;;;;30.70;28.10;;;12.20;99.90;;;;;;5096424;28;20857;-67
2023/04/06 13:02:57;;;;;;;31.30;28.40;;;12.00;99.90;;;;;;5094802;28;20455;-68
2023/04/06 13:05:24;;;;;;;32.77;29.70;;;12.00;99.90;;;;;;5085518;28;20464;-68
2023/04/06 13:07:52;;;;;;;34.10;30.93;;;12.00;99.90;;;;;;5095222;28;20466;-69
2023/04/06 13:10:19;;;;;;;34.10;30.80;;;11.80;99.90;;;;;;5098578;28;20505;-68
2023/04/06 13:12:46;;;;;;;35.93;32.37;;;11.60;99.90;;;;;;5089476;28;20454;-68
2023/04/06 13:15:13;;;;;;;35.77;31.80;;;11.40;99.90;;;;;;5079412;28;20531;-68
2023/04/06 13:17:41;;;;;;;34.73;31.43;;;11.40;99.90;;;;;;5087648;28;20754;-68
2023/04/06 13:20:09;;;;;;;35.67;32.23;;;11.30;99.90;;;;;;5087135;28;20460;-69
2023/04/06 13:22:36;;;;;;;34.60;31.30;;;11.30;99.90;;;;;;5093569;28;20465;-69
2023/04/06 13:25:03;;;;;;;36.40;32.70;;;11.20;99.90;;;;;;5092851;28;20458;-69
2023/04/06 13:27:33;;;;;;;34.23;30.53;;;10.90;99.90;;;;;;5096836;28;20584;-68
2023/04/06 13:30:00;;;;;;;34.97;31.70;;;10.70;99.90;;;;;;5096657;28;20583;-69
2023/04/06 13:32:27;;;;;;;33.83;30.57;;;10.60;99.90;;;;;;5093592;28;20460;-68
2023/04/06 13:34:57;;;;;;;35.50;32.00;;;10.60;99.90;;;;;;5087470;28;20454;-69
2023/04/06 13:37:24;;;;;;;34.77;31.10;;;10.30;99.90;;;;;;5096723;28;20470;-68
2023/04/06 13:39:51;;;;;;;34.33;31.03;;;10.20;99.90;;;;;;5084709;28;21252;-68
2023/04/06 13:42:17;;;;;;;36.90;33.13;;;10.10;99.90;;;;;;5088089;28;20454;-68
2023/04/06 13:44:46;;;;;;;35.00;31.53;;;10.00;99.90;;;;;;5081461;28;20458;-70
2023/04/06 13:47:13;;;;;;;35.87;32.07;;;10.00;99.90;;;;;;5089472;28;20940;-68
2023/04/06 13:49:40;;;;;;;35.63;32.13;;;9.90;99.90;;;;;;5097695;28;20496;-69
2023/04/06 13:52:10;;;;;;;38.00;34.10;;;9.80;99.90;;;;;;5089923;28;20465;-68
2023/04/06 13:54:37;;;;;;;38.33;33.23;;;9.70;99.90;;;;;;5083994;28;20550;-68
2023/04/06 13:57:04;;;;;;;36.37;32.83;;;9.70;99.90;;;;;;5093400;28;20862;-69
2023/04/06 13:59:34;;;;;;;39.60;35.60;;;9.60;99.90;;;;;;5090084;28;20461;-69
2023/04/06 14:02:01;;;;;;;43.70;36.87;;;9.50;99.90;;;;;;5089061;28;20454;-69
2023/04/06 14:04:27;;;;;;;37.40;33.70;;;9.60;99.90;;;;;;5093572;28;20971;-70
2023/04/06 14:06:54;;;;;;;37.40;33.70;;;9.70;99.90;;;;;;5090243;28;20446;-70
2023/04/06 14:09:23;;;;;;;35.10;31.50;;;9.60;99.90;;;;;;5087308;28;20490;-70
2023/04/06 14:11:50;;;;;;;38.87;34.40;;;9.50;99.90;;;;;;5086244;28;20461;-71
2023/04/06 14:14:17;;;;;;;37.63;32.50;;;9.60;99.90;;;;;;5088642;28;20451;-72
2023/04/06 14:16:44;;;;;;;37.23;33.30;;;9.60;99.90;;;;;;5082652;28;20488;-71
2023/04/06 14:19:12;;;;;;;40.80;35.57;;;9.60;99.90;;;;;;5086554;28;20450;-72
2023/04/06 14:21:40;;;;;;;32.80;29.17;;;9.50;99.90;;;;;;5091098;28;20908;-71
2023/04/06 14:24:08;;;;;;;41.20;33.70;;;9.50;99.90;;;;;;5084237;28;20454;-71
2023/04/06 14:26:38;;;;;;;34.43;30.10;;;9.60;99.90;;;;;;5088907;28;20456;-70
2023/04/06 14:29:05;;;;;;;36.87;28.23;;;9.60;99.90;;;;;;5085646;28;20928;-70
2023/04/06 14:31:33;;;;;;;30.90;28.00;;;9.50;99.90;;;;;;5097411;28;20511;-71
2023/04/06 14:34:03;;;;;;;34.50;30.83;;;9.50;99.90;;;;;;5088014;28;21307;-71
2023/04/06 14:36:36;;;;;;;35.90;30.47;;;9.50;99.90;;;;;;5092702;28;21052;-70
2023/04/06 14:39:03;;;;;;;33.43;29.60;;;9.40;99.90;;;;;;5091509;28;20503;-69
2023/04/06 14:41:30;;;;;;;50.97;32.80;;;9.30;99.90;;;;;;5089039;28;20908;-70
2023/04/06 14:44:00;;;;;;;32.17;29.30;;;9.30;99.90;;;;;;5091277;28;20446;-70
2023/04/06 14:46:27;;;;;;;29.60;26.80;;;9.30;99.90;;;;;;5086894;28;20478;-71
2023/04/06 14:48:55;;;;;;;31.83;28.70;;;9.20;99.90;;;;;;5088239;28;20493;-71
2023/04/06 14:51:25;;;;;;;35.00;31.37;;;9.20;99.90;;;;;;5080951;28;20457;-71
2023/04/06 14:53:51;;;;;;;48.50;32.90;;;9.10;99.90;;;;;;5088984;28;20953;-71
2023/04/06 14:56:22;;;;;;;35.87;30.90;;;9.10;99.90;;;;;;5101191;28;20460;-72
2023/04/06 14:58:50;;;;;;;32.13;28.87;;;9.10;99.90;;;;;;5092759;28;20442;-70
2023/04/06 15:01:20;;;;;;;32.23;29.10;;;9.10;99.90;;;;;;5088796;28;20541;-71
2023/04/06 15:03:47;;;;;;;31.53;28.37;;;9.10;99.90;;;;;;5090076;28;20550;-71
2023/04/06 15:06:15;;;;;;;29.33;26.50;;;9.20;99.90;;;;;;5087684;28;20462;-71
2023/04/06 15:08:42;;;;;;;31.90;29.10;;;9.10;99.90;;;;;;5092884;28;20716;-71
2023/04/06 15:11:10;;;;;;;30.73;28.03;;;9.00;99.90;;;;;;5091919;28;20750;-71
2023/04/06 15:13:37;;;;;;;31.63;27.70;;;9.10;99.90;;;;;;5086858;28;20468;-71
2023/04/06 15:16:04;;;;;;;31.73;28.53;;;9.00;99.90;;;;;;5085700;28;20462;-71
2023/04/06 15:18:33;;;;;;;29.50;26.70;;;9.00;99.90;;;;;;5089696;28;20953;-72
2023/04/06 15:21:00;;;;;;;30.87;27.93;;;9.10;99.90;;;;;;5093062;28;20454;-71
2023/04/06 15:23:29;;;;;;;30.17;27.47;;;9.10;99.90;;;;;;5095013;28;20465;-72
2023/04/06 15:25:56;;;;;;;32.57;29.30;;;9.10;99.90;;;;;;5086474;28;20465;-72
2023/04/06 15:28:22;;;;;;;31.40;28.30;;;9.10;99.90;;;;;;5089980;28;20979;-72
2023/04/06 15:30:50;;;;;;;31.27;28.03;;;9.10;99.90;;;;;;5086063;28;20489;-71
2023/04/06 15:33:18;;;;;;;33.37;30.07;;;9.10;99.90;;;;;;5089662;28;20488;-71
2023/04/06 15:35:47;;;;;;;33.37;30.00;;;9.10;99.90;;;;;;5088888;28;20463;-72
2023/04/06 15:38:14;;;;;;;34.23;30.40;;;9.10;99.90;;;;;;5086699;28;20864;-72
2023/04/06 15:40:44;;;;;;;31.90;29.10;;;9.10;99.90;;;;;;5087937;28;20569;-72
2023/04/06 15:43:11;;;;;;;31.67;28.57;;;9.10;99.90;;;;;;5092951;28;20465;-72
2023/04/06 15:45:39;;;;;;;32.37;29.10;;;9.10;99.90;;;;;;5088148;28;20480;-71
2023/04/06 15:48:06;;;;;;;31.37;28.07;;;9.10;99.90;;;;;;5093992;28;20501;-72
2023/04/06 15:50:34;;;;;;;33.03;29.30;;;9.00;99.90;;;;;;5085655;28;20585;-72
2023/04/06 15:53:02;;;;;;;34.80;31.00;;;9.00;99.90;;;;;;5092227;28;20465;-72
2023/04/06 15:55:30;;;;;;;30.33;27.43;;;9.00;99.90;;;;;;5081338;28;20449;-72
2023/04/06 15:57:56;;;;;;;27.70;25.07;;;8.90;99.90;;;;;;5074509;28;20747;-72
2023/04/06 16:00:24;;;;;;;28.13;25.60;;;8.80;99.90;;;;;;5084760;28;20530;-72
2023/04/06 16:02:50;;;;;;;29.60;27.10;;;8.80;99.90;;;;;;5086914;28;20467;-73
2023/04/06 16:05:18;;;;;;;26.73;24.13;;;8.70;99.90;;;;;;5094409;28;20498;-72
2023/04/06 16:07:45;;;;;;;26.20;24.03;;;8.80;99.90;;;;;;5092939;28;20462;-73
2023/04/06 16:10:14;;;;;;;24.63;22.73;;;8.80;99.90;;;;;;5095247;28;20489;-72
2023/04/06 16:12:41;;;;;;;24.47;22.40;;;8.70;99.90;;;;;;5087545;28;20469;-72
2023/04/06 16:15:10;;;;;;;27.33;24.93;;;8.60;99.90;;;;;;5091003;28;20454;-72
2023/04/06 16:17:36;;;;;;;29.03;26.30;;;8.70;99.90;;;;;;5095803;28;20862;-72
2023/04/06 16:20:03;;;;;;;28.83;26.17;;;8.70;99.90;;;;;;5093303;28;20979;-71
2023/04/06 16:22:30;;;;;;;30.63;27.63;;;8.60;99.90;;;;;;5084401;28;20473;-72
2023/04/06 16:24:57;;;;;;;30.37;27.37;;;8.60;99.90;;;;;;5092859;28;20461;-72
2023/04/06 16:27:26;;;;;;;29.90;26.93;;;8.50;99.90;;;;;;5090380;28;20455;-71
2023/04/06 16:29:53;;;;;;;29.43;26.93;;;8.60;99.90;;;;;;5082119;28;20560;-72
2023/04/06 16:32:20;;;;;;;30.47;27.40;;;8.50;99.90;;;;;;5104824;28;20463;-71
2023/04/06 16:34:47;;;;;;;30.30;27.40;;;8.50;99.90;;;;;;5089355;28;20568;-72
2023/04/06 16:37:14;;;;;;;31.50;28.50;;;8.50;99.90;;;;;;5097065;28;21038;-72
2023/04/06 16:39:40;;;;;;;30.47;27.70;;;8.50;99.90;;;;;;5094257;28;20462;-72
2023/04/06 16:42:07;;;;;;;30.43;27.73;;;8.50;99.90;;;;;;5094114;28;20871;-72
2023/04/06 16:44:35;;;;;;;31.17;28.17;;;8.40;99.90;;;;;;5087966;28;20802;-72
2023/04/06 16:47:03;;;;;;;35.33;31.07;;;8.40;99.90;;;;;;5092308;28;20489;-72
2023/04/06 16:49:30;;;;;;;35.17;31.67;;;8.40;99.90;;;;;;5094100;28;20849;-72
2023/04/06 16:52:00;;;;;;;31.67;28.50;;;8.40;99.90;;;;;;5091310;28;20462;-72
2023/04/06 16:54:27;;;;;;;31.10;27.90;;;8.40;99.90;;;;;;5090638;28;20983;-72
2023/04/06 16:56:55;;;;;;;29.27;26.27;;;8.30;99.90;;;;;;5092062;28;20458;-72
2023/04/06 16:59:22;;;;;;;31.27;28.17;;;8.30;99.90;;;;;;5094753;28;20461;-71
2023/04/06 17:01:50;;;;;;;32.07;28.40;;;8.30;99.90;;;;;;5095329;28;20461;-71
2023/04/06 17:04:17;;;;;;;33.27;28.50;;;8.30;99.90;;;;;;5099110;28;20465;-72
2023/04/06 17:06:44;;;;;;;30.93;27.73;;;8.30;99.90;;;;;;5097209;28;20978;-72
2023/04/06 17:09:11;;;;;;;31.80;28.00;;;8.20;99.90;;;;;;5092041;28;20470;-72
2023/04/06 17:11:38;;;;;;;30.43;27.50;;;8.30;99.90;;;;;;5091018;28;20516;-71
2023/04/06 17:14:05;;;;;;;30.73;27.60;;;8.30;99.90;;;;;;5091366;28;20449;-71
2023/04/06 17:16:32;;;;;;;32.93;29.40;;;8.20;99.90;;;;;;5083594;28;20570;-72
2023/04/06 17:19:00;;;;;;;31.17;27.73;;;8.20;99.90;;;;;;5091292;28;20479;-71
2023/04/06 17:21:27;;;;;;;28.53;25.67;;;8.20;99.90;;;;;;5092742;28;20459;-72
2023/04/06 17:23:54;;;;;;;33.00;25.97;;;8.20;99.90;;;;;;5088374;28;20465;-73
2023/04/06 17:26:21;;;;;;;27.93;24.97;;;8.20;99.90;;;;;;5086222;28;20486;-71
2023/04/06 17:28:48;;;;;;;28.70;25.63;;;8.10;99.90;;;;;;5105161;28;20560;-72
2023/04/06 17:31:15;;;;;;;30.93;27.00;;;8.20;99.90;;;;;;5089562;28;20529;-71
2023/04/06 17:33:43;;;;;;;28.33;23.83;;;8.20;99.90;;;;;;5094897;28;20457;-72
2023/04/06 17:36:11;;;;;;;29.50;25.10;;;8.10;99.90;;;;;;5087829;28;20550;-72
2023/04/06 17:38:42;;;;;;;25.53;23.23;;;8.10;99.90;;;;;;5094369;28;20897;-72
2023/04/06 17:41:10;;;;;;;30.00;24.60;;;8.00;99.90;;;;;;5100808;28;20510;-72
2023/04/06 17:43:37;;;;;;;28.23;25.17;;;7.90;99.90;;;;;;5093799;28;20480;-72
2023/04/06 17:46:04;;;;;;;26.83;24.20;;;7.90;99.90;;;;;;5092969;28;20481;-72
2023/04/06 17:48:31;;;;;;;26.70;24.20;;;7.80;99.90;;;;;;5094918;28;21175;-72
2023/04/06 17:50:58;;;;;;;27.40;24.10;;;7.90;99.90;;;;;;5096310;28;20856;-72
2023/04/06 17:53:29;;;;;;;25.73;22.27;;;7.80;99.90;;;;;;5102407;28;20476;-72
2023/04/06 17:55:56;;;;;;;24.27;21.77;;;7.80;99.90;;;;;;5104666;28;20468;-72
2023/04/06 17:58:23;;;;;;;23.07;20.87;;;7.80;99.90;;;;;;5098849;28;20452;-72
2023/04/06 18:00:50;;;;;;;23.43;20.40;;;7.80;99.90;;;;;;5096128;28;20466;-72
2023/04/06 18:03:17;;;;;;;23.83;21.73;;;7.70;99.90;;;;;;5101706;28;21135;-72
2023/04/06 18:05:44;;;;;;;23.53;21.43;;;7.80;99.90;;;;;;5093694;28;20465;-72
2023/04/06 18:08:11;;;;;;;23.47;21.37;;;7.70;99.90;;;;;;5087369;28;21024;-71
2023/04/06 18:10:39;;;;;;;21.77;19.17;;;7.70;99.90;;;;;;5091798;28;20949;-72
2023/04/06 18:13:07;;;;;;;23.90;20.67;;;7.70;99.90;;;;;;5099003;28;20465;-72
2023/04/06 18:15:35;;;;;;;23.00;20.80;;;7.70;99.90;;;;;;5095594;28;20518;-73
2023/04/06 18:18:02;;;;;;;21.60;19.30;;;7.80;99.90;;;;;;5102626;28;20829;-72
2023/04/06 18:20:29;;;;;;;21.40;19.30;;;7.80;99.90;;;;;;5102372;28;20457;-73
2023/04/06 18:22:56;;;;;;;21.07;19.27;;;7.70;99.90;;;;;;5089038;28;21036;-72
2023/04/06 18:25:24;;;;;;;18.47;17.00;;;7.70;99.90;;;;;;5102465;28;20860;-72
2023/04/06 18:27:52;;;;;;;18.93;17.17;;;7.70;99.90;;;;;;5100922;28;20463;-72
2023/04/06 18:30:19;;;;;;;20.47;17.33;;;7.60;99.90;;;;;;5092708;28;20974;-72
2023/04/06 18:32:46;;;;;;;20.23;17.20;;;7.60;99.90;;;;;;5101035;28;20461;-72
2023/04/06 18:35:14;;;;;;;17.03;15.77;;;7.60;99.90;;;;;;5090258;28;20810;-72
2023/04/06 18:37:41;;;;;;;16.80;15.50;;;7.60;99.90;;;;;;5099630;28;20534;-72
2023/04/06 18:40:09;;;;;;;18.40;16.80;;;7.50;99.90;;;;;;5097583;28;20468;-72
2023/04/06 18:42:37;;;;;;;17.03;15.73;;;7.50;99.90;;;;;;5080219;28;20873;-72
2023/04/06 18:45:05;;;;;;;17.50;16.03;;;7.50;99.90;;;;;;5088473;28;20959;-72
2023/04/06 18:47:33;;;;;;;17.73;15.73;;;7.50;99.90;;;;;;5100260;28;21155;-72
2023/04/06 18:50:00;;;;;;;16.70;15.30;;;7.50;99.90;;;;;;5093992;28;20822;-72
2023/04/06 18:52:27;;;;;;;16.20;14.90;;;7.50;99.90;;;;;;5100303;28;20476;-72
2023/04/06 18:54:54;;;;;;;16.30;14.80;;;7.50;99.90;;;;;;5099464;28;20461;-72
2023/04/06 18:57:21;;;;;;;15.70;14.70;;;7.40;99.90;;;;;;5093519;28;20942;-72
2023/04/06 18:59:48;;;;;;;16.27;15.00;;;7.40;99.90;;;;;;5093728;28;21168;-72
2023/04/06 19:02:16;;;;;;;16.50;15.07;;;7.40;99.90;;;;;;5085043;28;20894;-72
2023/04/06 19:04:43;;;;;;;17.13;15.57;;;7.40;99.90;;;;;;5086996;28;21148;-73
2023/04/06 19:07:10;;;;;;;16.43;15.23;;;7.40;99.90;;;;;;5086455;28;20517;-72
2023/04/06 19:09:37;;;;;;;17.73;16.43;;;7.40;99.90;;;;;;5089427;28;20514;-71
2023/04/06 19:12:04;;;;;;;16.30;14.97;;;7.40;99.90;;;;;;5102527;28;20503;-71
2023/04/06 19:14:32;;;;;;;17.50;14.40;;;7.40;99.90;;;;;;5092535;28;20789;-72
2023/04/06 19:16:59;;;;;;;15.27;14.03;;;7.40;99.90;;;;;;5092743;28;20970;-72
2023/04/06 19:19:27;;;;;;;14.93;13.83;;;7.30;99.90;;;;;;5101229;28;20457;-71
2023/04/06 19:21:55;;;;;;;16.13;15.03;;;7.30;99.90;;;;;;5096603;28;20456;-72
2023/04/06 19:24:21;;;;;;;16.20;15.20;;;7.30;99.90;;;;;;5094256;28;20462;-72
2023/04/06 19:26:48;;;;;;;17.87;16.47;;;7.40;99.90;;;;;;5100782;28;20473;-72
2023/04/06 19:29:15;;;;;;;17.90;16.63;;;7.40;99.90;;;;;;5101791;28;21041;-71
2023/04/06 19:31:42;;;;;;;15.53;14.50;;;7.40;99.90;;;;;;5088491;28;20497;-72
2023/04/06 19:34:10;;;;;;;16.07;15.00;;;7.40;99.90;;;;;;5100706;28;20940;-72
2023/04/06 19:36:38;;;;;;;16.63;15.40;;;7.40;99.90;;;;;;5096638;28;20947;-72
2023/04/06 19:39:07;;;;;;;17.23;15.63;;;7.40;99.90;;;;;;5097839;28;20722;-72
2023/04/06 19:41:33;;;;;;;16.60;15.30;;;7.40;99.90;;;;;;5071987;28;20884;-72
2023/04/06 19:44:00;;;;;;;15.17;14.17;;;7.40;99.90;;;;;;5093816;28;20860;-73
2023/04/06 19:46:27;;;;;;;15.83;14.83;;;7.40;99.90;;;;;;5096303;28;20540;-72
2023/04/06 19:48:54;;;;;;;16.90;15.67;;;7.40;99.90;;;;;;5105908;28;20464;-72
2023/04/06 19:51:22;;;;;;;16.30;15.10;;;7.50;99.90;;;;;;5096223;28;20501;-72
2023/04/06 19:53:51;;;;;;;17.47;15.80;;;7.50;99.90;;;;;;5099171;28;20517;-71
2023/04/06 19:56:18;;;;;;;16.20;14.97;;;7.40;99.90;;;;;;5097667;28;20464;-70
2023/04/06 19:58:45;;;;;;;15.20;13.93;;;7.40;99.90;;;;;;5094742;28;20503;-71
2023/04/06 20:01:12;;;;;;;15.00;13.90;;;7.40;99.90;;;;;;5095374;28;20801;-70
2023/04/06 20:03:38;;;;;;;16.23;15.10;;;7.40;99.90;;;;;;5092568;28;20873;-70
2023/04/06 20:06:05;;;;;;;22.00;15.50;;;7.50;99.90;;;;;;5102548;28;21003;-70
2023/04/06 20:08:32;;;;;;;15.57;14.43;;;7.50;99.90;;;;;;5096863;28;20979;-70
2023/04/06 20:11:06;;;;;;;16.70;15.40;;;7.50;99.90;;;;;;5092339;28;20492;-71
2023/04/06 20:13:33;;;;;;;17.30;15.90;;;7.50;99.90;;;;;;5087247;28;20832;-70
2023/04/06 20:16:00;;;;;;;18.47;17.10;;;7.50;99.90;;;;;;5086199;28;20907;-70
2023/04/06 20:18:27;;;;;;;18.10;16.60;;;7.50;99.90;;;;;;5107420;28;20461;-70
2023/04/06 20:20:54;;;;;;;17.63;16.47;;;7.50;99.90;;;;;;5094175;28;20489;-69
2023/04/06 20:23:21;;;;;;;17.93;16.53;;;7.50;99.90;;;;;;5098003;28;20467;-70
2023/04/06 20:25:48;;;;;;;17.87;16.67;;;7.60;99.90;;;;;;5104045;28;20464;-71
2023/04/06 20:28:17;;;;;;;19.30;17.60;;;7.60;99.90;;;;;;5092551;28;20465;-71